createdAt,value
2019-04-23T07:05:05.238Z,19.60
2019-04-23T07:07:42.966Z,19.60
2019-04-23T07:10:07.410Z,19.60
2019-04-23T07:12:44.522Z,19.70
2019-04-23T07:15:30.932Z,19.70
2019-04-23T07:17:47.766Z,19.70
2019-04-23T07:20:31.682Z,19.70
2019-04-23T07:23:06.534Z,19.70
2019-04-23T07:25:46.826Z,19.70
2019-04-23T07:28:32.522Z,19.70
2019-04-23T07:30:59.981Z,19.70
2019-04-23T07:33:27.899Z,19.70
2019-04-23T07:36:08.650Z,19.70
2019-04-23T07:39:09.811Z,19.70
2019-04-23T07:41:58.836Z,19.70
2019-04-23T07:44:42.659Z,19.70
2019-04-23T07:47:20.493Z,19.70
2019-04-23T07:50:00.690Z,19.70
2019-04-23T07:52:33.713Z,19.70
2019-04-23T07:57:34.989Z,19.70
2019-04-23T08:00:07.491Z,19.60
2019-04-23T08:02:46.027Z,19.50
2019-04-23T08:05:35.792Z,19.40
2019-04-23T08:07:55.500Z,19.30
2019-04-23T08:10:29.709Z,19.30
2019-04-23T08:13:08.554Z,19.20
2019-04-23T08:15:34.920Z,19.20
2019-04-23T08:25:26.466Z,19.00
2019-04-23T08:27:43.978Z,19.10
2019-04-23T08:30:17.465Z,19.10
2019-04-23T08:32:53.963Z,19.20
2019-04-23T08:35:23.322Z,19.30
2019-04-23T08:40:43.185Z,19.40
2019-04-23T08:43:36.674Z,19.40
2019-04-23T08:46:13.530Z,19.50
2019-04-23T08:48:50.302Z,19.50
2019-04-23T08:51:31.906Z,19.60
2019-04-23T08:53:58.094Z,19.60
2019-04-23T08:56:38.553Z,19.60
2019-04-23T08:59:22.893Z,19.70
2019-04-23T09:01:49.189Z,19.80
2019-04-23T09:04:28.332Z,19.80
2019-04-23T09:07:09.700Z,19.80
2019-04-23T09:09:53.879Z,19.90
2019-04-23T09:14:58.399Z,19.90
2019-04-23T09:25:11.696Z,20.00
2019-04-23T09:27:52.928Z,20.00
2019-04-23T09:30:26.838Z,20.00
2019-04-23T09:33:26.280Z,20.00
2019-04-23T09:36:15.079Z,20.10
2019-04-23T09:39:22.531Z,20.20
2019-04-23T09:42:14.776Z,20.40
2019-04-23T09:45:05.268Z,20.50
2019-04-23T09:50:29.259Z,20.80
2019-04-23T09:53:17.137Z,20.90
2019-04-23T09:55:43.746Z,21.00
2019-04-23T09:58:18.260Z,21.10
2019-04-23T10:01:19.991Z,21.10
2019-04-23T10:03:39.120Z,21.20
2019-04-23T10:06:05.506Z,21.20
2019-04-23T10:08:38.164Z,21.30
2019-04-23T10:11:07.421Z,21.40
2019-04-23T10:13:38.582Z,21.40
2019-04-23T10:16:15.393Z,21.50
2019-04-23T10:18:46.828Z,21.50
2019-04-23T10:21:25.568Z,21.50
2019-04-23T10:23:59.301Z,21.60
2019-04-23T10:26:32.469Z,21.60
2019-04-23T10:29:12.066Z,21.60
2019-04-23T10:31:49.253Z,21.60
2019-04-23T10:34:29.319Z,21.60
2019-04-23T10:37:07.168Z,21.70
2019-04-23T10:39:46.894Z,21.60
2019-04-23T10:42:27.909Z,21.70
2019-04-23T10:45:29.004Z,21.70
2019-04-23T10:48:50.653Z,21.70
2019-04-23T10:51:17.109Z,21.70
2019-04-23T10:56:53.753Z,21.80
2019-04-23T10:59:40.246Z,21.80
2019-04-23T11:07:30.941Z,21.90
2019-04-23T11:13:09.200Z,22.00
2019-04-23T11:18:08.937Z,22.00
2019-04-23T11:20:54.719Z,22.00
2019-04-23T11:23:27.631Z,22.00
2019-04-23T11:26:06.545Z,22.10
2019-04-23T11:28:37.980Z,22.00
2019-04-23T11:31:25.621Z,22.10
2019-04-23T11:34:01.208Z,22.10
2019-04-23T11:42:05.131Z,22.20
2019-04-23T11:44:13.286Z,22.20
2019-04-23T11:46:56.938Z,22.20
2019-04-23T11:49:34.238Z,22.30
2019-04-23T11:52:01.584Z,22.30
2019-04-23T11:54:30.749Z,22.30
2019-04-23T12:02:40.080Z,22.40
2019-04-23T12:08:30.117Z,22.40
2019-04-23T12:11:43.422Z,22.40
2019-04-23T12:14:10.254Z,22.40
2019-04-23T12:16:55.299Z,22.50
2019-04-23T12:19:33.275Z,22.50
2019-04-23T12:21:43.724Z,22.50
2019-04-23T12:24:36.706Z,22.50
2019-04-23T12:29:33.208Z,22.50
2019-04-23T12:32:37.481Z,22.40
2019-04-23T12:35:01.459Z,22.30
2019-04-23T12:37:39.320Z,22.10
2019-04-23T12:45:28.917Z,21.90
2019-04-23T12:53:01.209Z,21.60
2019-04-23T12:55:38.999Z,21.60
2019-04-23T12:58:11.153Z,21.50
2019-04-23T13:00:51.496Z,21.50
2019-04-23T13:06:01.086Z,21.40
2019-04-23T13:08:44.630Z,21.40
2019-04-23T13:11:49.986Z,21.30
2019-04-23T13:14:49.692Z,21.30
2019-04-23T13:17:49.002Z,21.40
2019-04-23T13:28:35.403Z,21.30
2019-04-23T13:31:12.596Z,21.30
2019-04-23T13:33:49.970Z,21.30
2019-04-23T13:36:18.857Z,21.30
2019-04-23T13:38:47.397Z,21.20
2019-04-23T13:46:23.000Z,21.20
2019-04-23T13:49:02.170Z,21.20
2019-04-23T13:51:50.289Z,21.20
2019-04-23T14:02:16.961Z,21.20
2019-04-23T14:05:12.727Z,21.10
2019-04-23T14:07:56.530Z,21.10
2019-04-23T14:10:31.247Z,21.10
2019-04-23T14:13:23.895Z,21.10
2019-04-23T14:15:49.823Z,21.10
2019-04-23T14:20:52.477Z,21.00
2019-04-23T14:23:59.167Z,21.00
2019-04-23T14:26:18.075Z,21.00
2019-04-23T14:28:43.539Z,21.00
2019-04-23T14:31:31.752Z,20.90
2019-04-23T14:34:03.112Z,20.90
2019-04-23T14:39:07.747Z,20.90
2019-04-23T14:41:45.030Z,20.90
2019-04-23T14:44:12.872Z,20.90
2019-04-23T14:47:03.466Z,20.90
2019-04-23T14:52:14.642Z,20.90
2019-04-23T14:57:35.104Z,20.90
2019-04-23T15:00:03.214Z,20.80
2019-04-23T15:02:46.417Z,20.80
2019-04-23T15:05:17.250Z,20.80
2019-04-23T15:07:45.798Z,20.80
2019-04-23T15:10:24.875Z,20.80
2019-04-23T15:13:01.635Z,20.80
2019-04-23T15:15:34.511Z,20.80
2019-04-23T15:18:26.548Z,20.80
2019-04-23T15:21:26.101Z,20.70
2019-04-23T15:23:47.448Z,20.70
2019-04-23T15:27:02.352Z,20.70
2019-04-23T15:28:14.422Z,20.70
2019-04-23T15:31:23.433Z,20.70
2019-04-23T15:33:58.181Z,20.70
2019-04-23T15:36:38.708Z,20.60
2019-04-23T15:39:08.781Z,20.60
2019-04-23T15:41:32.125Z,20.60
2019-04-23T15:44:05.618Z,20.60
2019-04-23T15:49:14.728Z,20.60
2019-04-23T15:51:53.172Z,20.60
2019-04-23T15:54:17.904Z,20.50
2019-04-23T15:59:40.848Z,20.50
2019-04-23T16:01:41.934Z,20.50
2019-04-23T16:04:11.228Z,20.50
2019-04-23T16:06:43.530Z,20.50
2019-04-23T16:09:49.565Z,20.50
2019-04-23T16:12:21.635Z,20.50
2019-04-23T16:17:27.782Z,20.40
2019-04-23T16:25:17.838Z,20.40
2019-04-23T16:27:59.990Z,20.40
2019-04-23T16:38:36.591Z,20.40
2019-04-23T16:41:04.159Z,20.40
2019-04-23T16:43:44.382Z,20.40
2019-04-23T16:46:11.913Z,20.40
2019-04-23T16:51:25.190Z,20.40
2019-04-23T16:53:59.017Z,20.30
2019-04-23T17:01:34.558Z,20.30
2019-04-23T17:06:44.196Z,20.30
2019-04-23T17:09:18.580Z,20.30
2019-04-23T17:11:59.355Z,20.30
2019-04-23T17:14:23.491Z,20.30
2019-04-23T17:16:54.991Z,20.30
2019-04-23T17:22:09.850Z,20.20
2019-04-23T17:24:51.745Z,20.20
2019-04-23T17:27:38.151Z,20.20
2019-04-23T17:30:04.764Z,20.20
2019-04-23T17:33:01.665Z,20.20
2019-04-23T17:35:30.137Z,20.20
2019-04-23T17:38:30.341Z,20.10
2019-04-23T17:41:02.231Z,20.10
2019-04-23T17:43:26.354Z,20.10
2019-04-23T17:45:54.376Z,20.10
2019-04-23T17:48:34.664Z,20.10
2019-04-23T17:51:14.403Z,20.10
2019-04-23T17:53:52.103Z,20.10
2019-04-23T17:56:27.248Z,20.10
2019-04-23T18:04:06.574Z,20.10
2019-04-23T18:06:37.671Z,20.00
2019-04-23T18:11:44.509Z,20.00
2019-04-23T18:14:13.281Z,20.00
2019-04-23T18:19:29.879Z,20.00
2019-04-23T18:25:16.517Z,20.00
2019-04-23T18:30:58.052Z,19.90
2019-04-23T18:36:32.867Z,19.90
2019-04-23T18:39:18.734Z,19.90
2019-04-23T18:42:00.003Z,19.90
2019-04-23T18:44:27.777Z,19.90
2019-04-23T18:47:04.295Z,19.90
2019-04-23T18:49:43.229Z,19.90
2019-04-23T18:52:14.617Z,19.90
2019-04-23T18:54:40.504Z,19.90
2019-04-23T18:59:50.825Z,19.90
2019-04-23T19:02:54.606Z,19.90
2019-04-23T19:08:51.466Z,19.80
2019-04-23T19:11:14.474Z,19.80
2019-04-23T19:13:44.550Z,19.80
2019-04-23T19:16:24.626Z,19.80
2019-04-23T19:18:56.364Z,19.80
2019-04-23T19:21:47.274Z,19.80
2019-04-23T19:24:17.096Z,19.80
2019-04-23T19:29:41.653Z,19.80
2019-04-23T19:32:00.650Z,19.80
2019-04-23T19:34:54.407Z,19.80
2019-04-23T19:37:18.532Z,19.80
2019-04-23T19:39:48.501Z,19.80
2019-04-23T19:42:18.056Z,19.80
2019-04-23T19:44:54.355Z,19.80
2019-04-23T19:47:45.868Z,19.80
2019-04-23T19:50:15.289Z,19.80
2019-04-23T19:55:16.992Z,19.80
2019-04-23T19:58:10.569Z,19.70
2019-04-23T20:00:47.907Z,19.70
2019-04-23T20:05:53.792Z,19.70
2019-04-23T20:11:07.742Z,19.70
2019-04-23T20:13:52.733Z,19.70
2019-04-23T20:18:54.297Z,19.70
2019-04-23T20:21:36.514Z,19.70
2019-04-23T20:24:13.464Z,19.70
2019-04-23T20:26:45.728Z,19.70
2019-04-23T20:37:44.114Z,19.60
2019-04-23T20:39:56.742Z,19.60
2019-04-23T20:42:34.604Z,19.60
2019-04-23T20:45:16.991Z,19.60
2019-04-23T20:50:17.818Z,19.60
2019-04-23T20:52:51.503Z,19.60
2019-04-23T20:55:50.640Z,19.60
2019-04-23T20:58:50.423Z,19.60
2019-04-23T21:01:22.254Z,19.60
2019-04-23T21:03:49.094Z,19.60
2019-04-23T21:11:43.812Z,19.60
2019-04-23T21:16:50.429Z,19.60
2019-04-23T21:19:25.854Z,19.60
2019-04-23T21:22:14.116Z,19.60
2019-04-23T21:24:42.870Z,19.60
2019-04-23T21:30:05.230Z,19.60
2019-04-23T21:32:52.614Z,19.60
2019-04-23T21:37:58.911Z,19.50
2019-04-23T21:41:06.026Z,19.50
2019-04-23T21:46:38.229Z,19.50
2019-04-23T21:51:46.350Z,19.50
2019-04-23T21:54:04.941Z,19.50
2019-04-23T21:56:46.452Z,19.50
2019-04-23T21:59:10.135Z,19.50
2019-04-23T22:01:58.893Z,19.50
2019-04-23T22:04:50.021Z,19.50
2019-04-23T22:06:59.194Z,19.50
2019-04-23T22:09:48.296Z,19.50
2019-04-23T22:12:19.592Z,19.50
2019-04-23T22:14:55.362Z,19.50
2019-04-23T22:17:24.982Z,19.50
2019-04-23T22:20:09.480Z,19.50
2019-04-23T22:22:49.670Z,19.50
2019-04-23T22:25:13.467Z,19.50
2019-04-23T22:27:48.180Z,19.50
2019-04-23T22:30:22.708Z,19.50
2019-04-23T22:32:56.365Z,19.50
2019-04-23T22:35:26.671Z,19.40
2019-04-23T22:38:06.759Z,19.50
2019-04-23T22:40:34.460Z,19.40
2019-04-23T22:45:55.354Z,19.40
2019-04-23T22:48:24.873Z,19.40
2019-04-23T22:51:04.873Z,19.40
2019-04-23T22:53:27.645Z,19.40
2019-04-23T22:56:09.916Z,19.40
2019-04-23T22:58:46.059Z,19.40
2019-04-23T23:03:59.565Z,19.40
2019-04-23T23:06:46.598Z,19.40
2019-04-23T23:09:20.364Z,19.40
2019-04-23T23:14:28.981Z,19.40
2019-04-23T23:17:04.915Z,19.40
2019-04-23T23:19:38.974Z,19.40
2019-04-23T23:22:11.934Z,19.40
2019-04-23T23:24:52.984Z,19.40
2019-04-23T23:27:29.967Z,19.40
2019-04-23T23:30:01.131Z,19.40
2019-04-23T23:35:14.570Z,19.40
2019-04-23T23:37:44.528Z,19.40
2019-04-23T23:40:20.413Z,19.40
2019-04-23T23:42:56.229Z,19.40
2019-04-23T23:45:31.569Z,19.40
2019-04-23T23:47:59.271Z,19.40
2019-04-23T23:50:34.892Z,19.40
2019-04-23T23:55:50.866Z,19.30
